Time,TemperatureF,DewpointF,PressureIn,WindDirection,WindDirectionDegrees,WindSpeedMPH,WindSpeedGustMPH,Humidity,HourlyPrecipIn,Conditions,Clouds,dailyrainin,SoftwareType,DateUTC
2013-05-15 00:00:00,28.1,24.5,30.05,West,281,0.0,0.0,86,0.00,,,0.00,Wunderground v.1.15,2013-05-15 04:00:00,
2013-05-15 00:05:00,27.9,24.3,30.05,West,281,0.0,0.0,86,0.00,,,0.00,Wunderground v.1.15,2013-05-15 04:05:00,
2013-05-15 00:10:00,27.9,24.5,30.05,West,281,0.0,0.0,87,0.00,,,0.00,Wunderground v.1.15,2013-05-15 04:10:00,
2013-05-15 00:20:00,27.6,24.2,30.05,West,281,0.0,0.0,87,0.00,,,0.00,Wunderground v.1.15,2013-05-15 04:20:00,
2013-05-15 00:25:00,27.4,24.0,30.05,West,281,0.0,0.0,87,0.00,,,0.00,Wunderground v.1.15,2013-05-15 04:25:00,
2013-05-15 00:30:00,27.3,23.9,30.05,West,281,0.0,0.0,87,0.00,,,0.00,Wunderground v.1.15,2013-05-15 04:30:00,
2013-05-15 00:35:00,27.5,24.4,30.05,West,281,0.0,0.0,88,0.00,,,0.00,Wunderground v.1.15,2013-05-15 04:35:00,
2013-05-15 00:40:00,27.4,24.3,30.05,West,281,0.0,0.0,88,0.00,,,0.00,Wunderground v.1.15,2013-05-15 04:40:00,
2013-05-15 00:45:00,27.3,24.2,30.05,West,281,0.0,0.0,88,0.00,,,0.00,Wunderground v.1.15,2013-05-15 04:45:00,
2013-05-15 00:50:00,27.3,24.5,30.05,West,281,0.0,0.0,89,0.00,,,0.00,Wunderground v.1.15,2013-05-15 04:50:00,
2013-05-15 00:55:00,27.3,24.2,30.05,West,281,0.0,0.0,88,0.00,,,0.00,Wunderground v.1.15,2013-05-15 04:55:00,
2013-05-15 01:00:00,27.3,24.5,30.05,West,281,0.0,0.0,89,0.00,,,0.00,Wunderground v.1.15,2013-05-15 05:00:00,
2013-05-15 01:05:00,27.4,24.6,30.05,West,281,0.0,0.0,89,0.00,,,0.00,Wunderground v.1.15,2013-05-15 05:05:00,
2013-05-15 01:10:00,27.2,24.1,30.05,West,281,0.0,0.0,88,0.00,,,0.00,Wunderground v.1.15,2013-05-15 05:10:00,
2013-05-15 01:15:00,27.1,24.0,30.05,West,281,0.0,0.0,88,0.00,,,0.00,Wunderground v.1.15,2013-05-15 05:15:00,
2013-05-15 01:20:00,26.9,23.8,30.05,West,281,0.0,0.0,88,0.00,,,0.00,Wunderground v.1.15,2013-05-15 05:20:00,
2013-05-15 01:25:00,26.8,23.7,30.05,West,281,0.0,0.0,88,0.00,,,0.00,Wunderground v.1.15,2013-05-15 05:25:00,
2013-05-15 01:30:00,27.0,24.5,30.05,West,281,0.0,0.0,90,0.00,,,0.00,Wunderground v.1.15,2013-05-15 05:30:00,
2013-05-15 01:35:00,26.9,24.1,30.05,West,281,0.0,0.0,89,0.00,,,0.00,Wunderground v.1.15,2013-05-15 05:35:00,
2013-05-15 01:40:00,26.8,24.0,30.05,West,281,0.0,0.0,89,0.00,,,0.00,Wunderground v.1.15,2013-05-15 05:40:00,
2013-05-15 01:45:00,26.7,23.9,30.05,West,281,0.0,0.0,89,0.00,,,0.00,Wunderground v.1.15,2013-05-15 05:45:00,
2013-05-15 01:50:00,26.6,23.8,30.05,West,281,0.0,0.0,89,0.00,,,0.00,Wunderground v.1.15,2013-05-15 05:50:00,
2013-05-15 01:55:00,26.3,23.5,30.05,West,281,0.0,0.0,89,0.00,,,0.00,Wunderground v.1.15,2013-05-15 05:55:00,
2013-05-15 02:00:00,26.2,23.4,30.05,West,281,0.0,0.0,89,0.00,,,0.00,Wunderground v.1.15,2013-05-15 06:00:00,
2013-05-15 02:05:00,26.3,23.8,30.05,West,281,0.0,0.0,90,0.00,,,0.00,Wunderground v.1.15,2013-05-15 06:05:00,
2013-05-15 02:10:00,26.2,23.4,30.05,West,281,0.0,0.0,89,0.00,,,0.00,Wunderground v.1.15,2013-05-15 06:10:00,
2013-05-15 02:15:00,26.0,23.2,30.05,West,281,0.0,0.0,89,0.00,,,0.00,Wunderground v.1.15,2013-05-15 06:15:00,
2013-05-15 02:20:00,26.0,23.5,30.05,West,281,0.0,0.0,90,0.00,,,0.00,Wunderground v.1.15,2013-05-15 06:20:00,
2013-05-15 02:25:00,25.9,23.4,30.05,West,281,0.0,0.0,90,0.00,,,0.00,Wunderground v.1.15,2013-05-15 06:25:00,
2013-05-15 02:30:00,25.8,23.3,30.04,West,281,0.0,0.0,90,0.00,,,0.00,Wunderground v.1.15,2013-05-15 06:30:00,
2013-05-15 02:35:00,25.8,23.3,30.05,West,281,0.0,0.0,90,0.00,,,0.00,Wunderground v.1.15,2013-05-15 06:35:00,
2013-05-15 02:40:00,25.7,23.2,30.05,West,281,0.0,0.0,90,0.00,,,0.00,Wunderground v.1.15,2013-05-15 06:40:00,
2013-05-15 02:45:00,25.7,23.2,30.04,West,281,0.0,0.0,90,0.00,,,0.00,Wunderground v.1.15,2013-05-15 06:45:00,
2013-05-15 02:50:00,25.6,23.1,30.04,West,281,0.0,0.0,90,0.00,,,0.00,Wunderground v.1.15,2013-05-15 06:50:00,
2013-05-15 02:55:00,25.5,23.0,30.04,West,281,0.0,0.0,90,0.00,,,0.00,Wunderground v.1.15,2013-05-15 06:55:00,
2013-05-15 03:00:00,25.4,22.9,30.04,West,281,0.0,0.0,90,0.00,,,0.00,Wunderground v.1.15,2013-05-15 07:00:00,
2013-05-15 03:05:00,25.3,22.8,30.04,West,281,0.0,0.0,90,0.00,,,0.00,Wunderground v.1.15,2013-05-15 07:05:00,
2013-05-15 03:10:00,25.2,22.9,30.04,West,281,0.0,0.0,91,0.00,,,0.00,Wunderground v.1.15,2013-05-15 07:10:00,
2013-05-15 03:20:00,25.1,22.6,30.05,West,281,0.0,0.0,90,0.00,,,0.00,Wunderground v.1.15,2013-05-15 07:20:00,
2013-05-15 03:25:00,25.0,22.7,30.04,West,281,0.0,0.0,91,0.00,,,0.00,Wunderground v.1.15,2013-05-15 07:25:00,
2013-05-15 03:30:00,25.0,22.7,30.05,West,281,0.0,0.0,91,0.00,,,0.00,Wunderground v.1.15,2013-05-15 07:30:00,
2013-05-15 03:35:00,24.9,22.6,30.05,West,281,0.0,0.0,91,0.00,,,0.00,Wunderground v.1.15,2013-05-15 07:35:00,
2013-05-15 03:40:00,24.7,22.4,30.05,West,281,0.0,0.0,91,0.00,,,0.00,Wunderground v.1.15,2013-05-15 07:40:00,
2013-05-15 03:45:00,24.7,22.4,30.05,West,281,0.0,0.0,91,0.00,,,0.00,Wunderground v.1.15,2013-05-15 07:45:00,
2013-05-15 03:50:00,24.5,22.2,30.04,West,281,0.0,0.0,91,0.00,,,0.00,Wunderground v.1.15,2013-05-15 07:50:00,
2013-05-15 03:55:00,24.4,22.2,30.05,West,281,0.0,0.0,91,0.00,,,0.00,Wunderground v.1.15,2013-05-15 07:55:00,
2013-05-15 04:00:00,24.4,22.2,30.05,West,281,0.0,0.0,91,0.00,,,0.00,Wunderground v.1.15,2013-05-15 08:00:00,
2013-05-15 04:05:00,24.3,22.1,30.05,West,281,0.0,0.0,91,0.00,,,0.00,Wunderground v.1.15,2013-05-15 08:05:00,
2013-05-15 04:15:00,24.1,21.9,30.05,West,281,0.0,0.0,91,0.00,,,0.00,Wunderground v.1.15,2013-05-15 08:15:00,
2013-05-15 04:20:00,24.0,21.8,30.05,West,281,0.0,0.0,91,0.00,,,0.00,Wunderground v.1.15,2013-05-15 08:20:00,
2013-05-15 04:30:00,23.8,21.6,30.05,West,281,0.0,0.0,91,0.00,,,0.00,Wunderground v.1.15,2013-05-15 08:30:00,
2013-05-15 04:40:00,23.9,21.9,30.05,West,281,0.0,0.0,92,0.00,,,0.00,Wunderground v.1.15,2013-05-15 08:40:00,
2013-05-15 04:50:00,23.7,21.7,30.05,West,281,0.0,0.0,92,0.00,,,0.00,Wunderground v.1.15,2013-05-15 08:50:00,
2013-05-15 05:00:00,23.8,22.1,30.05,West,281,0.0,0.0,93,0.00,,,0.00,Wunderground v.1.15,2013-05-15 09:00:00,
2013-05-15 05:05:00,23.8,21.8,30.05,West,281,0.0,0.0,92,0.00,,,0.00,Wunderground v.1.15,2013-05-15 09:05:00,
2013-05-15 05:10:00,23.7,21.7,30.05,West,281,0.0,0.0,92,0.00,,,0.00,Wunderground v.1.15,2013-05-15 09:10:00,
2013-05-15 05:15:00,23.6,21.6,30.05,West,281,0.0,0.0,92,0.00,,,0.00,Wunderground v.1.15,2013-05-15 09:15:00,
2013-05-15 05:20:00,23.5,21.5,30.05,West,281,0.0,0.0,92,0.00,,,0.00,Wunderground v.1.15,2013-05-15 09:20:00,
2013-05-15 05:25:00,23.4,21.4,30.05,West,281,0.0,0.0,92,0.00,,,0.00,Wunderground v.1.15,2013-05-15 09:25:00,
2013-05-15 05:30:00,23.3,21.3,30.05,West,281,0.0,0.0,92,0.00,,,0.00,Wunderground v.1.15,2013-05-15 09:30:00,
2013-05-15 05:35:00,23.1,21.1,30.05,West,281,0.0,0.0,92,0.00,,,0.00,Wunderground v.1.15,2013-05-15 09:35:00,
2013-05-15 05:40:00,23.0,21.0,30.05,West,281,0.0,0.0,92,0.00,,,0.00,Wunderground v.1.15,2013-05-15 09:40:00,
2013-05-15 05:45:00,23.0,21.0,30.05,West,281,0.0,0.0,92,0.00,,,0.00,Wunderground v.1.15,2013-05-15 09:45:00,
2013-05-15 05:50:00,22.9,20.9,30.05,West,281,0.0,0.0,92,0.00,,,0.00,Wunderground v.1.15,2013-05-15 09:50:00,
2013-05-15 06:00:00,23.0,21.3,30.05,West,281,0.0,0.0,93,0.00,,,0.00,Wunderground v.1.15,2013-05-15 10:00:00,
2013-05-15 06:05:00,23.1,21.4,30.05,West,281,0.0,0.0,93,0.00,,,0.00,Wunderground v.1.15,2013-05-15 10:05:00,
2013-05-15 06:10:00,23.1,21.4,30.05,West,281,0.0,0.0,93,0.00,,,0.00,Wunderground v.1.15,2013-05-15 10:10:00,
2013-05-15 06:15:00,23.3,21.6,30.05,West,281,0.0,0.0,93,0.00,,,0.00,Wunderground v.1.15,2013-05-15 10:15:00,
2013-05-15 06:20:00,23.4,21.7,30.05,West,281,0.0,0.0,93,0.00,,,0.00,Wunderground v.1.15,2013-05-15 10:20:00,
2013-05-15 06:25:00,23.9,22.4,30.05,WSW,255,0.0,0.0,94,0.00,,,0.00,Wunderground v.1.15,2013-05-15 10:25:00,
2013-05-15 06:30:00,24.2,22.7,30.05,WSW,255,0.0,0.0,94,0.00,,,0.00,Wunderground v.1.15,2013-05-15 10:30:00,
2013-05-15 06:35:00,24.5,23.0,30.05,WSW,255,0.0,0.0,94,0.00,,,0.00,Wunderground v.1.15,2013-05-15 10:35:00,
2013-05-15 06:40:00,24.8,23.3,30.05,WSW,255,0.0,0.0,94,0.00,,,0.00,Wunderground v.1.15,2013-05-15 10:40:00,
2013-05-15 06:45:00,25.2,24.0,30.05,WSW,255,0.0,0.0,95,0.00,,,0.00,Wunderground v.1.15,2013-05-15 10:45:00,
2013-05-15 06:55:00,26.4,25.2,30.05,WSW,255,0.0,0.0,95,0.00,,,0.00,Wunderground v.1.15,2013-05-15 10:55:00,
2013-05-15 07:05:00,27.6,26.4,30.05,WSW,255,0.0,0.0,95,0.00,,,0.00,Wunderground v.1.15,2013-05-15 11:05:00,
2013-05-15 07:20:00,29.5,28.2,30.05,WSW,255,0.0,0.0,95,0.00,,,0.00,Wunderground v.1.15,2013-05-15 11:20:00,
2013-05-15 07:35:00,32.1,30.0,30.04,WSW,255,0.0,0.0,92,0.00,,,0.00,Wunderground v.1.15,2013-05-15 11:35:00,
2013-05-15 07:40:00,32.9,30.0,30.04,WSW,255,0.0,0.0,89,0.00,,,0.00,Wunderground v.1.15,2013-05-15 11:40:00,
2013-05-15 07:50:00,34.1,30.1,30.03,ENE,63,0.0,1.0,85,0.00,,,0.00,Wunderground v.1.15,2013-05-15 11:50:00,
2013-05-15 07:55:00,34.8,30.5,30.03,NE,46,1.0,1.0,84,0.00,,,0.00,Wunderground v.1.15,2013-05-15 11:55:00,
2013-05-15 08:00:00,35.3,30.1,30.03,NE,46,1.0,1.0,81,0.00,,,0.00,Wunderground v.1.15,2013-05-15 12:00:00,
2013-05-15 08:10:00,36.7,31.1,30.03,East,79,2.0,2.0,80,0.00,,,0.00,Wunderground v.1.15,2013-05-15 12:10:00,
2013-05-15 08:30:00,41.1,32.8,30.02,SSE,155,2.0,5.0,72,0.00,,,0.00,Wunderground v.1.15,2013-05-15 12:30:00,
2013-05-15 08:40:00,42.6,32.0,30.01,South,170,4.0,5.0,66,0.00,,,0.00,Wunderground v.1.15,2013-05-15 12:40:00,
2013-05-15 08:45:00,43.5,32.1,30.01,South,173,5.0,5.0,64,0.00,,,0.00,Wunderground v.1.15,2013-05-15 12:45:00,
2013-05-15 08:55:00,45.1,32.0,30.00,SSE,159,4.0,6.0,60,0.00,,,0.00,Wunderground v.1.15,2013-05-15 12:55:00,
2013-05-15 09:05:00,46.0,31.2,30.00,ESE,123,5.0,7.0,56,0.00,,,0.00,Wunderground v.1.15,2013-05-15 13:05:00,
2013-05-15 09:10:00,46.4,31.1,29.99,SSE,150,4.0,7.0,55,0.00,,,0.00,Wunderground v.1.15,2013-05-15 13:10:00,
2013-05-15 09:15:00,47.2,33.6,29.99,East,96,5.0,5.0,59,0.00,,,0.00,Wunderground v.1.15,2013-05-15 13:15:00,
2013-05-15 09:30:00,48.1,31.8,29.98,SE,142,7.0,8.0,53,0.00,,,0.00,Wunderground v.1.15,2013-05-15 13:30:00,
2013-05-15 09:40:00,48.9,31.5,29.97,SSE,159,6.0,6.0,51,0.00,,,0.00,Wunderground v.1.15,2013-05-15 13:40:00,
2013-05-15 09:50:00,49.4,32.0,29.97,SE,139,8.0,8.0,51,0.00,,,0.00,Wunderground v.1.15,2013-05-15 13:50:00,
2013-05-15 10:00:00,50.3,31.8,29.96,SSE,154,6.0,7.0,49,0.00,,,0.00,Wunderground v.1.15,2013-05-15 14:00:00,
2013-05-15 10:05:00,50.5,32.5,29.96,SSE,162,8.0,12.0,50,0.00,,,0.00,Wunderground v.1.15,2013-05-15 14:05:00,
2013-05-15 10:10:00,50.7,31.7,29.95,SSE,157,8.0,8.0,48,0.00,,,0.00,Wunderground v.1.15,2013-05-15 14:10:00,
2013-05-15 10:15:00,51.0,32.0,29.95,SE,128,8.0,10.0,48,0.00,,,0.00,Wunderground v.1.15,2013-05-15 14:15:00,
2013-05-15 10:20:00,51.3,32.8,29.94,SE,132,8.0,8.0,49,0.00,,,0.00,Wunderground v.1.15,2013-05-15 14:20:00,
2013-05-15 10:25:00,51.9,31.2,29.94,ESE,107,8.0,8.0,45,0.00,,,0.00,Wunderground v.1.15,2013-05-15 14:25:00,
2013-05-15 10:30:00,52.3,31.0,29.93,South,170,6.0,8.0,44,0.00,,,0.00,Wunderground v.1.15,2013-05-15 14:30:00,
2013-05-15 10:35:00,53.0,33.8,29.93,SSE,161,6.0,8.0,48,0.00,,,0.00,Wunderground v.1.15,2013-05-15 14:35:00,
2013-05-15 10:40:00,52.6,31.3,29.93,SSE,157,7.0,7.0,44,0.00,,,0.00,Wunderground v.1.15,2013-05-15 14:40:00,
2013-05-15 10:50:00,52.4,31.1,29.92,East,101,6.0,6.0,44,0.00,,,0.00,Wunderground v.1.15,2013-05-15 14:50:00,
2013-05-15 10:55:00,53.1,32.3,29.92,SSE,168,5.0,9.0,45,0.00,,,0.00,Wunderground v.1.15,2013-05-15 14:55:00,
2013-05-15 11:05:00,53.3,32.5,29.91,East,92,6.0,7.0,45,0.00,,,0.00,Wunderground v.1.15,2013-05-15 15:05:00,
2013-05-15 11:10:00,53.7,32.3,29.91,ENE,66,6.0,6.0,44,0.00,,,0.00,Wunderground v.1.15,2013-05-15 15:10:00,
2013-05-15 11:20:00,53.7,31.7,29.91,SSE,166,8.0,8.0,43,0.00,,,0.00,Wunderground v.1.15,2013-05-15 15:20:00,
2013-05-15 11:25:00,54.5,33.6,29.90,East,84,8.0,8.0,45,0.00,,,0.00,Wunderground v.1.15,2013-05-15 15:25:00,
2013-05-15 11:30:00,55.1,32.4,29.90,East,79,8.0,8.0,42,0.00,,,0.00,Wunderground v.1.15,2013-05-15 15:30:00,
2013-05-15 11:40:00,55.9,34.3,29.89,East,79,6.0,7.0,44,0.00,,,0.00,Wunderground v.1.15,2013-05-15 15:40:00,
2013-05-15 11:50:00,57.5,32.7,29.88,ESE,105,7.0,7.0,39,0.00,,,0.00,Wunderground v.1.15,2013-05-15 15:50:00,
2013-05-15 11:55:00,57.3,34.4,29.88,SSE,148,9.0,9.0,42,0.00,,,0.00,Wunderground v.1.15,2013-05-15 15:55:00,
2013-05-15 12:00:00,57.3,32.5,29.87,SE,144,9.0,9.0,39,0.00,,,0.00,Wunderground v.1.15,2013-05-15 16:00:00,
2013-05-15 12:05:00,57.8,33.0,29.87,SSE,150,7.0,13.0,39,0.00,,,0.00,Wunderground v.1.15,2013-05-15 16:05:00,
2013-05-15 12:10:00,57.7,32.9,29.87,ESE,115,8.0,8.0,39,0.00,,,0.00,Wunderground v.1.15,2013-05-15 16:10:00,
2013-05-15 12:15:00,57.8,33.0,29.86,SSE,163,10.0,10.0,39,0.00,,,0.00,Wunderground v.1.15,2013-05-15 16:15:00,
2013-05-15 12:20:00,57.7,32.9,29.86,NNE,27,9.0,9.0,39,0.00,,,0.00,Wunderground v.1.15,2013-05-15 16:20:00,
2013-05-15 12:35:00,58.7,33.8,29.85,SSE,165,9.0,11.0,39,0.00,,,0.00,Wunderground v.1.15,2013-05-15 16:35:00,
2013-05-15 12:40:00,58.6,32.4,29.85,SE,127,10.0,10.0,37,0.00,,,0.00,Wunderground v.1.15,2013-05-15 16:40:00,
2013-05-15 12:45:00,58.5,33.0,29.84,SSE,168,11.0,15.0,38,0.00,,,0.00,Wunderground v.1.15,2013-05-15 16:45:00,
2013-05-15 12:55:00,58.2,32.0,29.84,SSE,150,12.0,12.0,37,0.00,,,0.00,Wunderground v.1.15,2013-05-15 16:55:00,
2013-05-15 13:05:00,58.6,33.0,29.83,ESE,118,9.0,13.0,38,0.00,,,0.00,Wunderground v.1.15,2013-05-15 17:05:00,
2013-05-15 13:10:00,59.1,31.4,29.82,SE,129,9.0,9.0,35,0.00,,,0.00,Wunderground v.1.15,2013-05-15 17:10:00,
2013-05-15 13:20:00,59.3,33.0,29.82,ESE,103,9.0,11.0,37,0.00,,,0.00,Wunderground v.1.15,2013-05-15 17:20:00,
2013-05-15 13:25:00,59.8,32.1,29.81,ESE,114,9.0,12.0,35,0.00,,,0.00,Wunderground v.1.15,2013-05-15 17:25:00,
2013-05-15 13:35:00,60.8,35.0,29.80,SSE,148,9.0,10.0,38,0.00,,,0.00,Wunderground v.1.15,2013-05-15 17:35:00,
2013-05-15 13:40:00,60.7,34.9,29.79,SSE,152,10.0,14.0,38,0.00,,,0.00,Wunderground v.1.15,2013-05-15 17:40:00,
2013-05-15 13:45:00,61.7,34.5,29.79,ESE,115,10.0,14.0,36,0.00,,,0.00,Wunderground v.1.15,2013-05-15 17:45:00,
2013-05-15 14:00:00,61.3,32.7,29.77,SW,234,11.0,11.0,34,0.00,,,0.00,Wunderground v.1.15,2013-05-15 18:00:00,
2013-05-15 14:05:00,62.0,33.3,29.77,South,178,11.0,11.0,34,0.00,,,0.00,Wunderground v.1.15,2013-05-15 18:05:00,
2013-05-15 14:25:00,60.6,33.5,29.77,SSE,167,9.0,9.0,36,0.00,,,0.00,Wunderground v.1.15,2013-05-15 18:25:00,
2013-05-15 14:35:00,60.6,34.2,29.78,SE,144,9.0,15.0,37,0.00,,,0.00,Wunderground v.1.15,2013-05-15 18:35:00,
2013-05-15 14:40:00,60.5,33.4,29.78,SE,143,9.0,15.0,36,0.00,,,0.00,Wunderground v.1.15,2013-05-15 18:40:00,
2013-05-15 14:50:00,60.5,34.1,29.76,SE,128,9.0,16.0,37,0.00,,,0.00,Wunderground v.1.15,2013-05-15 18:50:00,
2013-05-15 14:55:00,60.5,35.4,29.75,SE,134,9.0,13.0,39,0.00,,,0.00,Wunderground v.1.15,2013-05-15 18:55:00,
2013-05-15 15:00:00,60.4,34.7,29.74,SE,130,11.0,11.0,38,0.00,,,0.00,Wunderground v.1.15,2013-05-15 19:00:00,
2013-05-15 15:05:00,60.7,34.9,29.73,SSE,167,12.0,12.0,38,0.00,,,0.00,Wunderground v.1.15,2013-05-15 19:05:00,
2013-05-15 15:15:00,62.0,36.1,29.72,SE,133,12.0,12.0,38,0.00,,,0.00,Wunderground v.1.15,2013-05-15 19:15:00,
2013-05-15 15:20:00,62.3,35.7,29.72,SSE,148,11.0,14.0,37,0.00,,,0.00,Wunderground v.1.15,2013-05-15 19:20:00,
2013-05-15 15:35:00,59.9,35.5,29.71,South,169,14.0,14.0,40,0.00,,,0.00,Wunderground v.1.15,2013-05-15 19:35:00,
2013-05-15 15:45:00,59.0,36.5,29.70,NE,44,12.0,12.0,43,0.00,,,0.00,Wunderground v.1.15,2013-05-15 19:45:00,
2013-05-15 15:55:00,58.2,38.6,29.69,SSE,164,8.0,8.0,48,0.00,,,0.00,Wunderground v.1.15,2013-05-15 19:55:00,
2013-05-15 16:05:00,55.5,42.3,29.71,South,183,8.0,9.0,61,0.00,,,0.01,Wunderground v.1.15,2013-05-15 20:05:00,
2013-05-15 16:10:00,54.4,43.3,29.72,SE,146,9.0,10.0,66,0.00,,,0.01,Wunderground v.1.15,2013-05-15 20:10:00,
2013-05-15 16:15:00,53.1,43.2,29.71,South,175,10.0,10.0,69,0.00,,,0.01,Wunderground v.1.15,2013-05-15 20:15:00,
2013-05-15 16:20:00,52.4,43.6,29.72,SSE,162,9.0,9.0,72,0.00,,,0.01,Wunderground v.1.15,2013-05-15 20:20:00,
2013-05-15 16:30:00,50.5,44.6,29.71,ESE,121,8.0,8.0,80,0.20,,,0.04,Wunderground v.1.15,2013-05-15 20:30:00,
2013-05-15 16:50:00,48.3,44.9,29.72,South,169,1.0,10.0,88,0.07,,,0.07,Wunderground v.1.15,2013-05-15 20:50:00,
2013-05-15 16:55:00,48.3,45.2,29.72,SSE,150,2.0,10.0,89,0.17,,,0.08,Wunderground v.1.15,2013-05-15 20:55:00,
2013-05-15 17:00:00,48.3,45.5,29.70,SE,128,3.0,5.0,90,0.44,,,0.12,Wunderground v.1.15,2013-05-15 21:00:00,
2013-05-15 17:05:00,48.1,45.3,29.69,South,186,3.0,6.0,90,0.21,,,0.14,Wunderground v.1.15,2013-05-15 21:05:00,
2013-05-15 17:25:00,47.7,45.2,29.69,South,175,3.0,3.0,91,0.16,,,0.21,Wunderground v.1.15,2013-05-15 21:25:00,
2013-05-15 17:35:00,47.5,45.0,29.68,SSE,163,0.0,0.0,91,0.06,,,0.22,Wunderground v.1.15,2013-05-15 21:35:00,
2013-05-15 17:45:00,47.4,44.9,29.68,SE,127,1.0,2.0,91,0.05,,,0.22,Wunderground v.1.15,2013-05-15 21:45:00,
2013-05-15 17:55:00,47.5,45.0,29.68,SSE,163,3.0,3.0,91,0.00,,,0.22,Wunderground v.1.15,2013-05-15 21:55:00,
2013-05-15 18:00:00,47.5,45.3,29.69,SE,126,2.0,2.0,92,0.00,,,0.22,Wunderground v.1.15,2013-05-15 22:00:00,
2013-05-15 18:05:00,47.6,45.4,29.68,SSE,155,2.0,2.0,92,0.00,,,0.22,Wunderground v.1.15,2013-05-15 22:05:00,
2013-05-15 18:10:00,47.6,45.4,29.69,South,175,2.0,2.0,92,0.00,,,0.22,Wunderground v.1.15,2013-05-15 22:10:00,
2013-05-15 18:20:00,47.7,45.5,29.68,South,170,5.0,5.0,92,0.00,,,0.23,Wunderground v.1.15,2013-05-15 22:20:00,
2013-05-15 18:25:00,47.7,45.5,29.67,SSE,156,6.0,6.0,92,0.05,,,0.24,Wunderground v.1.15,2013-05-15 22:25:00,
2013-05-15 18:30:00,47.7,45.5,29.67,SSE,157,7.0,7.0,92,0.05,,,0.24,Wunderground v.1.15,2013-05-15 22:30:00,
2013-05-15 18:35:00,47.6,45.4,29.67,SSE,155,5.0,10.0,92,0.05,,,0.24,Wunderground v.1.15,2013-05-15 22:35:00,
2013-05-15 18:40:00,47.6,45.4,29.66,SE,138,5.0,8.0,92,0.04,,,0.24,Wunderground v.1.15,2013-05-15 22:40:00,
2013-05-15 18:45:00,47.7,45.5,29.66,SE,131,5.0,8.0,92,0.00,,,0.24,Wunderground v.1.15,2013-05-15 22:45:00,
2013-05-15 18:55:00,47.7,45.5,29.66,South,186,4.0,4.0,92,0.00,,,0.24,Wunderground v.1.15,2013-05-15 22:55:00,
2013-05-15 19:00:00,47.8,45.6,29.66,SE,130,3.0,3.0,92,0.00,,,0.24,Wunderground v.1.15,2013-05-15 23:00:00,
2013-05-15 19:05:00,47.8,45.9,29.65,SE,137,2.0,6.0,93,0.00,,,0.24,Wunderground v.1.15,2013-05-15 23:05:00,
2013-05-15 19:15:00,47.8,45.9,29.65,SSE,148,3.0,3.0,93,0.00,,,0.24,Wunderground v.1.15,2013-05-15 23:15:00,
2013-05-15 19:20:00,47.8,45.9,29.65,ENE,72,3.0,3.0,93,0.00,,,0.24,Wunderground v.1.15,2013-05-15 23:20:00,
2013-05-15 19:25:00,47.8,45.9,29.65,South,187,3.0,6.0,93,0.00,,,0.24,Wunderground v.1.15,2013-05-15 23:25:00,
2013-05-15 19:30:00,47.9,45.7,29.65,ESE,103,3.0,6.0,92,0.00,,,0.24,Wunderground v.1.15,2013-05-15 23:30:00,
2013-05-15 19:40:00,47.9,46.0,29.65,ESE,114,2.0,2.0,93,0.00,,,0.24,Wunderground v.1.15,2013-05-15 23:40:00,
2013-05-15 19:45:00,47.9,46.0,29.65,South,177,2.0,8.0,93,0.00,,,0.24,Wunderground v.1.15,2013-05-15 23:45:00,
2013-05-15 19:50:00,48.0,46.1,29.64,South,176,3.0,4.0,93,0.00,,,0.24,Wunderground v.1.15,2013-05-15 23:50:00,
2013-05-15 19:55:00,48.0,46.1,29.65,SW,214,4.0,8.0,93,0.00,,,0.24,Wunderground v.1.15,2013-05-15 23:55:00,
2013-05-15 20:00:00,48.1,46.2,29.65,South,169,4.0,7.0,93,0.00,,,0.24,Wunderground v.1.15,2013-05-16 00:00:00,
2013-05-15 20:05:00,48.2,46.0,29.65,South,189,5.0,7.0,92,0.00,,,0.24,Wunderground v.1.15,2013-05-16 00:05:00,
2013-05-15 20:10:00,48.3,46.1,29.65,SE,146,5.0,5.0,92,0.00,,,0.24,Wunderground v.1.15,2013-05-16 00:10:00,
2013-05-15 20:15:00,48.3,46.1,29.65,SSE,154,4.0,5.0,92,0.00,,,0.24,Wunderground v.1.15,2013-05-16 00:15:00,
2013-05-15 20:20:00,48.4,46.2,29.65,SSE,161,6.0,8.0,92,0.00,,,0.24,Wunderground v.1.15,2013-05-16 00:20:00,
2013-05-15 20:25:00,48.5,46.3,29.65,SSE,155,7.0,8.0,92,0.00,,,0.24,Wunderground v.1.15,2013-05-16 00:25:00,
2013-05-15 20:30:00,48.5,46.3,29.65,South,181,7.0,7.0,92,0.00,,,0.24,Wunderground v.1.15,2013-05-16 00:30:00,
2013-05-15 20:35:00,48.5,46.3,29.65,SSE,163,8.0,10.0,92,0.00,,,0.24,Wunderground v.1.15,2013-05-16 00:35:00,
2013-05-15 20:45:00,48.7,46.5,29.65,SSW,208,6.0,7.0,92,0.00,,,0.24,Wunderground v.1.15,2013-05-16 00:45:00,
2013-05-15 20:50:00,48.7,46.5,29.66,SSW,203,5.0,6.0,92,0.00,,,0.24,Wunderground v.1.15,2013-05-16 00:50:00,
2013-05-15 20:55:00,48.7,46.5,29.66,SSE,163,5.0,6.0,92,0.00,,,0.24,Wunderground v.1.15,2013-05-16 00:55:00,
2013-05-15 21:00:00,48.7,46.8,29.66,South,186,4.0,6.0,93,0.00,,,0.24,Wunderground v.1.15,2013-05-16 01:00:00,
2013-05-15 21:20:00,48.9,47.0,29.66,South,185,6.0,7.0,93,0.00,,,0.24,Wunderground v.1.15,2013-05-16 01:20:00,
2013-05-15 21:25:00,49.0,47.1,29.66,South,178,6.0,6.0,93,0.00,,,0.24,Wunderground v.1.15,2013-05-16 01:25:00,
2013-05-15 21:30:00,49.0,47.1,29.66,South,169,6.0,8.0,93,0.00,,,0.24,Wunderground v.1.15,2013-05-16 01:30:00,
2013-05-15 21:45:00,49.2,47.3,29.66,SSE,161,7.0,7.0,93,0.00,,,0.24,Wunderground v.1.15,2013-05-16 01:45:00,
2013-05-15 22:00:00,49.3,47.4,29.66,South,179,4.0,4.0,93,0.00,,,0.24,Wunderground v.1.15,2013-05-16 02:00:00,
2013-05-15 22:05:00,49.4,47.5,29.67,South,172,3.0,5.0,93,0.00,,,0.24,Wunderground v.1.15,2013-05-16 02:05:00,
2013-05-15 22:15:00,49.4,47.5,29.68,SSW,205,3.0,3.0,93,0.00,,,0.24,Wunderground v.1.15,2013-05-16 02:15:00,
2013-05-15 22:20:00,49.4,47.5,29.68,SSW,205,2.0,3.0,93,0.00,,,0.24,Wunderground v.1.15,2013-05-16 02:20:00,
2013-05-15 22:35:00,49.4,47.5,29.66,South,169,1.0,1.0,93,0.00,,,0.24,Wunderground v.1.15,2013-05-16 02:35:00,
2013-05-15 22:45:00,49.3,47.4,29.66,ESE,112,0.0,1.0,93,0.00,,,0.24,Wunderground v.1.15,2013-05-16 02:45:00,
2013-05-15 23:00:00,48.5,46.6,29.66,SE,139,1.0,1.0,93,0.00,,,0.24,Wunderground v.1.15,2013-05-16 03:00:00,
2013-05-15 23:05:00,48.3,46.4,29.66,SE,139,0.0,1.0,93,0.00,,,0.24,Wunderground v.1.15,2013-05-16 03:05:00,
2013-05-15 23:15:00,48.1,46.5,29.66,ESE,112,1.0,3.0,94,0.00,,,0.24,Wunderground v.1.15,2013-05-16 03:15:00,
2013-05-15 23:25:00,48.0,46.4,29.66,SE,128,1.0,2.0,94,0.00,,,0.24,Wunderground v.1.15,2013-05-16 03:25:00,
2013-05-15 23:30:00,47.5,45.6,29.66,SE,127,0.0,0.0,93,0.00,,,0.24,Wunderground v.1.15,2013-05-16 03:30:00,
2013-05-15 23:35:00,46.7,44.8,29.66,SE,127,0.0,0.0,93,0.00,,,0.24,Wunderground v.1.15,2013-05-16 03:35:00,
2013-05-15 23:40:00,46.3,44.4,29.66,SE,127,0.0,0.0,93,0.00,,,0.24,Wunderground v.1.15,2013-05-16 03:40:00,
2013-05-15 23:45:00,45.6,43.7,29.66,SE,127,0.0,0.0,93,0.00,,,0.24,Wunderground v.1.15,2013-05-16 03:45:00,
2013-05-15 23:50:00,45.1,43.2,29.65,SE,127,0.0,0.0,93,0.00,,,0.24,Wunderground v.1.15,2013-05-16 03:50:00,
2013-05-15 23:55:00,44.7,43.1,29.65,SE,127,0.0,0.0,94,0.00,,,0.24,Wunderground v.1.15,2013-05-16 03:55:00,